sensor_id;sensor_type;location;lat;lon;timestamp;pressure;altitude;pressure_sealevel;temperature;humidity
60489;BME280;46331;49.252;8.904;2023-07-31T00:00:28;99680.63;;;17.43;69.25
60489;BME280;46331;49.252;8.904;2023-07-31T00:01:09;99686.50;;;17.45;69.08
60489;BME280;46331;49.252;8.904;2023-07-31T00:01:49;99686.50;;;17.45;68.73
60489;BME280;46331;49.252;8.904;2023-07-31T00:02:30;99680.88;;;17.47;68.88
60489;BME280;46331;49.252;8.904;2023-07-31T00:03:10;99683.53;;;17.47;68.33
60489;BME280;46331;49.252;8.904;2023-07-31T00:03:51;99680.63;;;17.43;68.85
60489;BME280;46331;49.252;8.904;2023-07-31T00:04:31;99680.09;;;17.41;68.66
60489;BME280;46331;49.252;8.904;2023-07-31T00:05:12;99685.19;;;17.43;68.50
60489;BME280;46331;49.252;8.904;2023-07-31T00:05:52;99682.22;;;17.44;68.98
60489;BME280;46331;49.252;8.904;2023-07-31T00:06:33;99679.53;;;17.44;68.65
60489;BME280;46331;49.252;8.904;2023-07-31T00:07:13;99680.31;;;17.45;68.56
60489;BME280;46331;49.252;8.904;2023-07-31T00:07:54;99679.81;;;17.43;68.56
60489;BME280;46331;49.252;8.904;2023-07-31T00:08:35;99680.63;;;17.43;68.65
60489;BME280;46331;49.252;8.904;2023-07-31T00:09:15;99678.22;;;17.42;68.73
60489;BME280;46331;49.252;8.904;2023-07-31T00:09:56;99680.63;;;17.43;68.59
60489;BME280;46331;49.252;8.904;2023-07-31T00:10:36;99671.28;;;17.41;69.26
60489;BME280;46331;49.252;8.904;2023-07-31T00:11:17;99673.97;;;17.41;69.00
60489;BME280;46331;49.252;8.904;2023-07-31T00:11:57;99673.13;;;17.40;68.80
60489;BME280;46331;49.252;8.904;2023-07-31T00:12:39;99678.22;;;17.42;68.63
60489;BME280;46331;49.252;8.904;2023-07-31T00:13:20;99668.31;;;17.42;68.60
60489;BME280;46331;49.252;8.904;2023-07-31T00:14:00;99669.38;;;17.41;68.57
60489;BME280;46331;49.252;8.904;2023-07-31T00:14:41;99675.53;;;17.42;68.66
60489;BME280;46331;49.252;8.904;2023-07-31T00:15:21;99670.75;;;17.39;68.97
60489;BME280;46331;49.252;8.904;2023-07-31T00:16:02;99671.56;;;17.39;68.97
60489;BME280;46331;49.252;8.904;2023-07-31T00:16:42;99674.75;;;17.41;68.90
60489;BME280;46331;49.252;8.904;2023-07-31T00:17:23;99669.66;;;17.40;68.72
60489;BME280;46331;49.252;8.904;2023-07-31T00:18:03;99679.03;;;17.42;68.94
60489;BME280;46331;49.252;8.904;2023-07-31T00:18:44;99673.66;;;17.42;69.21
60489;BME280;46331;49.252;8.904;2023-07-31T00:19:24;99675.53;;;17.42;69.25
60489;BME280;46331;49.252;8.904;2023-07-31T00:20:05;99683.28;;;17.43;68.69
60489;BME280;46331;49.252;8.904;2023-07-31T00:20:46;99680.63;;;17.43;69.04
60489;BME280;46331;49.252;8.904;2023-07-31T00:21:26;99681.44;;;17.44;69.11
60489;BME280;46331;49.252;8.904;2023-07-31T00:22:06;99683.28;;;17.43;70.14
60489;BME280;46331;49.252;8.904;2023-07-31T00:22:47;99685.69;;;17.45;70.83
60489;BME280;46331;49.252;8.904;2023-07-31T00:23:27;99681.44;;;17.44;72.24
60489;BME280;46331;49.252;8.904;2023-07-31T00:24:08;99683.81;;;17.45;72.05
60489;BME280;46331;49.252;8.904;2023-07-31T00:24:49;99687.28;;;17.46;72.86
60489;BME280;46331;49.252;8.904;2023-07-31T00:25:29;99684.91;;;17.44;73.73
60489;BME280;46331;49.252;8.904;2023-07-31T00:26:10;99687.59;;;17.44;74.11
60489;BME280;46331;49.252;8.904;2023-07-31T00:26:50;99689.75;;;17.42;74.26
60489;BME280;46331;49.252;8.904;2023-07-31T00:27:31;99686.88;;;17.33;74.79
60489;BME280;46331;49.252;8.904;2023-07-31T00:28:11;99696.25;;;17.36;75.43
60489;BME280;46331;49.252;8.904;2023-07-31T00:28:52;99690.34;;;17.34;75.53
60489;BME280;46331;49.252;8.904;2023-07-31T00:29:33;99685.84;;;17.29;75.90
60489;BME280;46331;49.252;8.904;2023-07-31T00:30:14;99685.00;;;17.34;76.45
60489;BME280;46331;49.252;8.904;2023-07-31T00:30:54;99686.88;;;17.33;76.49
60489;BME280;46331;49.252;8.904;2023-07-31T00:31:37;99688.78;;;17.33;76.84
60489;BME280;46331;49.252;8.904;2023-07-31T00:32:17;99690.91;;;17.31;76.94
60489;BME280;46331;49.252;8.904;2023-07-31T00:32:58;99689.84;;;17.32;76.74
60489;BME280;46331;49.252;8.904;2023-07-31T00:33:38;99693.59;;;17.31;76.51
60489;BME280;46331;49.252;8.904;2023-07-31T00:34:19;99679.69;;;17.29;76.14
60489;BME280;46331;49.252;8.904;2023-07-31T00:34:59;99682.66;;;17.27;76.18
60489;BME280;46331;49.252;8.904;2023-07-31T00:35:40;99678.91;;;17.28;75.67
60489;BME280;46331;49.252;8.904;2023-07-31T00:36:20;99677.06;;;17.24;75.13
60489;BME280;46331;49.252;8.904;2023-07-31T00:37:01;99680.03;;;17.22;73.70
60489;BME280;46331;49.252;8.904;2023-07-31T00:37:41;99679.78;;;17.19;72.65
60489;BME280;46331;49.252;8.904;2023-07-31T00:38:22;99679.47;;;17.25;72.57
60489;BME280;46331;49.252;8.904;2023-07-31T00:39:02;99675.94;;;17.30;72.62
60489;BME280;46331;49.252;8.904;2023-07-31T00:39:43;99673.19;;;17.35;72.44
60489;BME280;46331;49.252;8.904;2023-07-31T00:40:23;99673.19;;;17.35;73.39
60489;BME280;46331;49.252;8.904;2023-07-31T00:41:03;99671.56;;;17.39;71.25
60489;BME280;46331;49.252;8.904;2023-07-31T00:41:44;99670.13;;;17.47;70.35
60489;BME280;46331;49.252;8.904;2023-07-31T00:42:25;99672.53;;;17.48;69.23
60489;BME280;46331;49.252;8.904;2023-07-31T00:43:05;99672.75;;;17.52;69.40
60489;BME280;46331;49.252;8.904;2023-07-31T00:43:46;99673.25;;;17.54;69.72
60489;BME280;46331;49.252;8.904;2023-07-31T00:44:26;99670.56;;;17.54;68.91
60489;BME280;46331;49.252;8.904;2023-07-31T00:45:08;99671.69;;;17.53;68.36
60489;BME280;46331;49.252;8.904;2023-07-31T00:45:48;99666.75;;;17.60;67.24
60489;BME280;46331;49.252;8.904;2023-07-31T00:46:29;99672.94;;;17.61;67.07
60489;BME280;46331;49.252;8.904;2023-07-31T00:47:10;99669.97;;;17.62;66.70
60489;BME280;46331;49.252;8.904;2023-07-31T00:47:50;99672.88;;;17.66;65.78
60489;BME280;46331;49.252;8.904;2023-07-31T00:48:33;99667.63;;;17.80;65.74
60489;BME280;46331;49.252;8.904;2023-07-31T00:49:15;99666.72;;;17.90;65.49
60489;BME280;46331;49.252;8.904;2023-07-31T00:49:56;99669.06;;;17.96;65.43
60489;BME280;46331;49.252;8.904;2023-07-31T00:50:36;99671.47;;;17.98;64.86
60489;BME280;46331;49.252;8.904;2023-07-31T00:51:17;99667.19;;;17.97;64.96
60489;BME280;46331;49.252;8.904;2023-07-31T00:51:59;99667.91;;;18.02;64.80
60489;BME280;46331;49.252;8.904;2023-07-31T00:52:39;99665.53;;;18.01;64.86
60489;BME280;46331;49.252;8.904;2023-07-31T00:53:20;99667.91;;;18.02;64.16
60489;BME280;46331;49.252;8.904;2023-07-31T00:54:01;99667.06;;;18.07;64.12
60489;BME280;46331;49.252;8.904;2023-07-31T00:54:43;99669.78;;;18.02;64.36
60489;BME280;46331;49.252;8.904;2023-07-31T00:55:23;99665.66;;;18.10;63.94
60489;BME280;46331;49.252;8.904;2023-07-31T00:56:04;99664.28;;;18.12;64.22
60489;BME280;46331;49.252;8.904;2023-07-31T00:56:45;99660.25;;;18.15;63.85
60489;BME280;46331;49.252;8.904;2023-07-31T00:57:27;99658.44;;;18.10;63.57
60489;BME280;46331;49.252;8.904;2023-07-31T00:58:07;99660.53;;;18.13;63.69
60489;BME280;46331;49.252;8.904;2023-07-31T00:58:48;99662.69;;;18.11;63.83
60489;BME280;46331;49.252;8.904;2023-07-31T00:59:28;99653.84;;;18.11;63.67
60489;BME280;46331;49.252;8.904;2023-07-31T01:00:09;99656.03;;;18.09;63.07
60489;BME280;46331;49.252;8.904;2023-07-31T01:00:50;99659.97;;;18.16;63.18
60489;BME280;46331;49.252;8.904;2023-07-31T01:01:30;99655.81;;;18.24;62.87
60489;BME280;46331;49.252;8.904;2023-07-31T01:02:11;99650.66;;;18.28;62.52
60489;BME280;46331;49.252;8.904;2023-07-31T01:02:52;99653.84;;;18.30;62.82
60489;BME280;46331;49.252;8.904;2023-07-31T01:03:32;99651.47;;;18.28;62.99
60489;BME280;46331;49.252;8.904;2023-07-31T01:04:13;99665.16;;;18.27;62.72
60489;BME280;46331;49.252;8.904;2023-07-31T01:04:54;99646.91;;;18.29;62.53
60489;BME280;46331;49.252;8.904;2023-07-31T01:05:43;99651.41;;;18.33;62.69
60489;BME280;46331;49.252;8.904;2023-07-31T01:06:52;99642.75;;;18.36;62.91
60489;BME280;46331;49.252;8.904;2023-07-31T01:07:49;99653.06;;;18.29;62.83
60489;BME280;46331;49.252;8.904;2023-07-31T01:08:44;99642.31;;;18.29;62.98
60489;BME280;46331;49.252;8.904;2023-07-31T01:09:42;99644.84;;;18.20;62.85
60489;BME280;46331;49.252;8.904;2023-07-31T01:10:29;99640.06;;;18.17;62.39
60489;BME280;46331;49.252;8.904;2023-07-31T01:11:25;99646.31;;;18.32;62.30
60489;BME280;46331;49.252;8.904;2023-07-31T01:12:09;99641.16;;;18.35;62.42
60489;BME280;46331;49.252;8.904;2023-07-31T01:12:53;99631.16;;;18.41;61.98
60489;BME280;46331;49.252;8.904;2023-07-31T01:13:34;99636.88;;;18.34;62.04
60489;BME280;46331;49.252;8.904;2023-07-31T01:14:14;99635.00;;;18.35;61.91
60489;BME280;46331;49.252;8.904;2023-07-31T01:15:41;99641.16;;;18.35;62.38
60489;BME280;46331;49.252;8.904;2023-07-31T01:16:22;99641.44;;;18.34;61.98
60489;BME280;46331;49.252;8.904;2023-07-31T01:17:02;99646.25;;;18.37;62.00
60489;BME280;46331;49.252;8.904;2023-07-31T01:17:43;99637.59;;;18.40;61.89
60489;BME280;46331;49.252;8.904;2023-07-31T01:18:24;99640.13;;;18.31;62.13
60489;BME280;46331;49.252;8.904;2023-07-31T01:19:06;99639.25;;;18.36;61.98
60489;BME280;46331;49.252;8.904;2023-07-31T01:19:48;99639.56;;;18.34;61.88
60489;BME280;46331;49.252;8.904;2023-07-31T01:20:30;99632.09;;;18.31;61.93
60489;BME280;46331;49.252;8.904;2023-07-31T01:22:27;99636.38;;;18.32;61.96
60489;BME280;46331;49.252;8.904;2023-07-31T01:23:41;99637.16;;;18.33;62.15
60489;BME280;46331;49.252;8.904;2023-07-31T01:24:36;99632.59;;;18.33;62.28
60489;BME280;46331;49.252;8.904;2023-07-31T01:26:33;99630.91;;;18.37;62.23
60489;BME280;46331;49.252;8.904;2023-07-31T01:27:17;99625.06;;;18.35;62.16
60489;BME280;46331;49.252;8.904;2023-07-31T01:28:05;99639.56;;;18.34;62.28
60489;BME280;46331;49.252;8.904;2023-07-31T01:29:00;99629.06;;;18.38;62.19
60489;BME280;46331;49.252;8.904;2023-07-31T01:30:00;99636.00;;;18.39;62.13
60489;BME280;46331;49.252;8.904;2023-07-31T01:30:47;99641.16;;;18.35;62.25
60489;BME280;46331;49.252;8.904;2023-07-31T01:31:29;99636.09;;;18.34;62.40
60489;BME280;46331;49.252;8.904;2023-07-31T01:32:10;99633.69;;;18.32;62.52
60489;BME280;46331;49.252;8.904;2023-07-31T01:32:52;99635.59;;;18.32;62.66
60489;BME280;46331;49.252;8.904;2023-07-31T01:33:34;99638.84;;;18.29;62.92
60489;BME280;46331;49.252;8.904;2023-07-31T01:34:17;99636.16;;;18.29;62.58
60489;BME280;46331;49.252;8.904;2023-07-31T01:34:59;99646.66;;;18.25;63.06
60489;BME280;46331;49.252;8.904;2023-07-31T01:35:39;99632.94;;;18.27;62.37
60489;BME280;46331;49.252;8.904;2023-07-31T01:36:20;99632.16;;;18.26;62.47
60489;BME280;46331;49.252;8.904;2023-07-31T01:37:01;99634.19;;;18.15;62.34
60489;BME280;46331;49.252;8.904;2023-07-31T01:37:41;99637.09;;;18.19;62.59
60489;BME280;46331;49.252;8.904;2023-07-31T01:38:22;99634.69;;;18.17;62.80
60489;BME280;46331;49.252;8.904;2023-07-31T01:39:03;99633.31;;;18.20;63.07
60489;BME280;46331;49.252;8.904;2023-07-31T01:39:44;99631.13;;;18.22;62.72
60489;BME280;46331;49.252;8.904;2023-07-31T01:40:25;99627.59;;;18.27;62.53
60489;BME280;46331;49.252;8.904;2023-07-31T01:41:06;99632.94;;;18.27;62.43
60489;BME280;46331;49.252;8.904;2023-07-31T01:41:46;99626.28;;;18.24;62.64
60489;BME280;46331;49.252;8.904;2023-07-31T01:42:27;99629.31;;;18.17;62.65
60489;BME280;46331;49.252;8.904;2023-07-31T01:43:07;99622.78;;;18.23;62.64
60489;BME280;46331;49.252;8.904;2023-07-31T01:43:48;99633.78;;;18.27;62.58
60489;BME280;46331;49.252;8.904;2023-07-31T01:44:28;99627.38;;;18.23;62.59
60489;BME280;46331;49.252;8.904;2023-07-31T01:45:09;99621.13;;;18.28;62.43
60489;BME280;46331;49.252;8.904;2023-07-31T01:45:50;99631.38;;;18.26;62.51
60489;BME280;46331;49.252;8.904;2023-07-31T01:46:32;99626.00;;;18.26;62.85
60489;BME280;46331;49.252;8.904;2023-07-31T01:47:12;99621.44;;;18.26;62.66
60489;BME280;46331;49.252;8.904;2023-07-31T01:47:53;99629.19;;;18.28;63.05
60489;BME280;46331;49.252;8.904;2023-07-31T01:48:33;99623.38;;;18.20;63.27
60489;BME280;46331;49.252;8.904;2023-07-31T01:49:16;99623.25;;;18.12;62.65
60489;BME280;46331;49.252;8.904;2023-07-31T01:49:56;99617.59;;;18.13;63.05
60489;BME280;46331;49.252;8.904;2023-07-31T01:50:37;99618.53;;;18.22;62.65
60489;BME280;46331;49.252;8.904;2023-07-31T01:51:17;99619.53;;;18.27;62.54
60489;BME280;46331;49.252;8.904;2023-07-31T01:51:58;99626.78;;;18.26;62.90
60489;BME280;46331;49.252;8.904;2023-07-31T01:52:38;99624.41;;;18.25;62.93
60489;BME280;46331;49.252;8.904;2023-07-31T01:53:19;99611.47;;;18.27;62.82
60489;BME280;46331;49.252;8.904;2023-07-31T01:54:00;99620.41;;;18.22;62.86
60489;BME280;46331;49.252;8.904;2023-07-31T01:54:41;99619.03;;;18.25;63.22
60489;BME280;46331;49.252;8.904;2023-07-31T01:55:22;99619.03;;;18.25;63.36
60489;BME280;46331;49.252;8.904;2023-07-31T01:56:03;99615.19;;;18.12;63.08
60489;BME280;46331;49.252;8.904;2023-07-31T01:56:45;99610.63;;;18.12;63.37
60489;BME280;46331;49.252;8.904;2023-07-31T01:57:25;99610.81;;;18.16;63.39
60489;BME280;46331;49.252;8.904;2023-07-31T01:58:06;99610.81;;;18.16;63.26
60489;BME280;46331;49.252;8.904;2023-07-31T01:58:46;99611.00;;;18.05;63.25
60489;BME280;46331;49.252;8.904;2023-07-31T01:59:27;99613.00;;;18.14;63.23
60489;BME280;46331;49.252;8.904;2023-07-31T02:00:08;99610.25;;;18.19;62.97
60489;BME280;46331;49.252;8.904;2023-07-31T02:00:55;99616.28;;;18.11;63.09
60489;BME280;46331;49.252;8.904;2023-07-31T02:01:35;99619.03;;;18.05;63.29
60489;BME280;46331;49.252;8.904;2023-07-31T02:02:16;99606.13;;;18.08;63.54
60489;BME280;46331;49.252;8.904;2023-07-31T02:02:56;99612.28;;;18.08;63.57
60489;BME280;46331;49.252;8.904;2023-07-31T02:03:37;99615.19;;;18.12;63.44
60489;BME280;46331;49.252;8.904;2023-07-31T02:04:18;99608.00;;;18.07;63.61
60489;BME280;46331;49.252;8.904;2023-07-31T02:04:58;99609.66;;;18.03;63.13
60489;BME280;46331;49.252;8.904;2023-07-31T02:05:49;99604.22;;;18.08;63.14
60489;BME280;46331;49.252;8.904;2023-07-31T02:06:30;99608.44;;;18.14;62.96
60489;BME280;46331;49.252;8.904;2023-07-31T02:07:10;99607.94;;;18.12;62.88
60489;BME280;46331;49.252;8.904;2023-07-31T02:07:51;99606.28;;;18.16;62.65
60489;BME280;46331;49.252;8.904;2023-07-31T02:08:31;99606.00;;;18.18;62.94
60489;BME280;46331;49.252;8.904;2023-07-31T02:09:12;99605.25;;;18.12;62.96
60489;BME280;46331;49.252;8.904;2023-07-31T02:09:52;99599.22;;;18.01;62.91
60489;BME280;46331;49.252;8.904;2023-07-31T02:10:34;99597.34;;;18.02;62.84
60489;BME280;46331;49.252;8.904;2023-07-31T02:11:14;99594.59;;;18.07;62.83
60489;BME280;46331;49.252;8.904;2023-07-31T02:11:55;99592.22;;;18.05;62.76
60489;BME280;46331;49.252;8.904;2023-07-31T02:12:35;99593.19;;;18.10;62.71
60489;BME280;46331;49.252;8.904;2023-07-31T02:13:16;99593.50;;;18.08;62.91
60489;BME280;46331;49.252;8.904;2023-07-31T02:13:56;99591.09;;;18.07;62.94
60489;BME280;46331;49.252;8.904;2023-07-31T02:14:37;99583.13;;;18.01;62.68
60489;BME280;46331;49.252;8.904;2023-07-31T02:15:17;99595.09;;;17.90;63.07
60489;BME280;46331;49.252;8.904;2023-07-31T02:15:58;99592.84;;;17.97;63.10
60489;BME280;46331;49.252;8.904;2023-07-31T02:16:39;99591.66;;;17.84;63.09
60489;BME280;46331;49.252;8.904;2023-07-31T02:17:20;99595.81;;;17.96;63.00
60489;BME280;46331;49.252;8.904;2023-07-31T02:18:01;99587.34;;;17.89;62.98
60489;BME280;46331;49.252;8.904;2023-07-31T02:18:41;99589.16;;;17.93;62.91
60489;BME280;46331;49.252;8.904;2023-07-31T02:19:22;99589.16;;;17.88;62.95
60489;BME280;46331;49.252;8.904;2023-07-31T02:20:03;99589.44;;;17.92;63.21
60489;BME280;46331;49.252;8.904;2023-07-31T02:20:50;99593.66;;;17.98;62.85
60489;BME280;46331;49.252;8.904;2023-07-31T02:21:31;99587.25;;;17.94;62.89
60489;BME280;46331;49.252;8.904;2023-07-31T02:22:11;99589.38;;;17.97;62.86
60489;BME280;46331;49.252;8.904;2023-07-31T02:22:52;99593.94;;;17.96;62.68
60489;BME280;46331;49.252;8.904;2023-07-31T02:23:33;99581.03;;;17.98;62.69
60489;BME280;46331;49.252;8.904;2023-07-31T02:24:14;99586.19;;;17.95;62.67
60489;BME280;46331;49.252;8.904;2023-07-31T02:24:54;99586.47;;;17.93;62.49
60489;BME280;46331;49.252;8.904;2023-07-31T02:25:36;99581.41;;;17.86;62.30
60489;BME280;46331;49.252;8.904;2023-07-31T02:26:17;99589.44;;;17.92;62.62
60489;BME280;46331;49.252;8.904;2023-07-31T02:26:58;99583.72;;;17.98;62.55
60489;BME280;46331;49.252;8.904;2023-07-31T02:27:40;99585.03;;;18.01;62.38
60489;BME280;46331;49.252;8.904;2023-07-31T02:28:20;99579.66;;;18.01;62.19
60489;BME280;46331;49.252;8.904;2023-07-31T02:29:01;99575.06;;;18.01;62.57
60489;BME280;46331;49.252;8.904;2023-07-31T02:29:41;99582.09;;;17.97;62.08
60489;BME280;46331;49.252;8.904;2023-07-31T02:30:22;99579.28;;;17.89;62.30
60489;BME280;46331;49.252;8.904;2023-07-31T02:31:02;99575.16;;;17.96;62.14
60489;BME280;46331;49.252;8.904;2023-07-31T02:31:43;99576.25;;;17.95;61.67
60489;BME280;46331;49.252;8.904;2023-07-31T02:32:23;99567.22;;;18.05;61.58
60489;BME280;46331;49.252;8.904;2023-07-31T02:33:04;99575.16;;;18.15;61.54
60489;BME280;46331;49.252;8.904;2023-07-31T02:33:45;99576.47;;;18.18;61.39
60489;BME280;46331;49.252;8.904;2023-07-31T02:34:25;99572.75;;;18.14;61.07
60489;BME280;46331;49.252;8.904;2023-07-31T02:35:06;99579.94;;;18.18;61.14
60489;BME280;46331;49.252;8.904;2023-07-31T02:35:47;99580.03;;;18.13;61.38
60489;BME280;46331;49.252;8.904;2023-07-31T02:36:27;99574.66;;;18.13;61.10
60489;BME280;46331;49.252;8.904;2023-07-31T02:37:10;99578.03;;;18.19;61.01
60489;BME280;46331;49.252;8.904;2023-07-31T02:37:50;99571.97;;;18.13;61.12
60489;BME280;46331;49.252;8.904;2023-07-31T02:38:30;99573.53;;;18.14;61.15
60489;BME280;46331;49.252;8.904;2023-07-31T02:39:11;99577.53;;;18.17;61.02
60489;BME280;46331;49.252;8.904;2023-07-31T02:39:51;99574.41;;;18.10;60.97
60489;BME280;46331;49.252;8.904;2023-07-31T02:40:32;99572.03;;;18.08;61.19
60489;BME280;46331;49.252;8.904;2023-07-31T02:41:12;99583.56;;;18.09;60.92
60489;BME280;46331;49.252;8.904;2023-07-31T02:41:53;99575.72;;;18.12;60.79
60489;BME280;46331;49.252;8.904;2023-07-31T02:42:34;99574.94;;;18.12;60.69
60489;BME280;46331;49.252;8.904;2023-07-31T02:43:14;99575.16;;;18.15;60.29
60489;BME280;46331;49.252;8.904;2023-07-31T02:43:55;99576.16;;;18.19;60.42
60489;BME280;46331;49.252;8.904;2023-07-31T02:44:35;99581.00;;;18.17;60.60
60489;BME280;46331;49.252;8.904;2023-07-31T02:45:16;99583.41;;;18.19;61.08
60489;BME280;46331;49.252;8.904;2023-07-31T02:45:56;99577.91;;;18.10;60.90
60489;BME280;46331;49.252;8.904;2023-07-31T02:46:38;99578.31;;;18.17;60.88
60489;BME280;46331;49.252;8.904;2023-07-31T02:47:18;99576.50;;;18.13;60.49
60489;BME280;46331;49.252;8.904;2023-07-31T02:47:59;99574.66;;;18.13;60.62
60489;BME280;46331;49.252;8.904;2023-07-31T02:48:39;99583.69;;;18.17;60.82
60489;BME280;46331;49.252;8.904;2023-07-31T02:49:20;99574.06;;;18.16;61.27
60489;BME280;46331;49.252;8.904;2023-07-31T02:50:02;99588.94;;;18.09;61.12
60489;BME280;46331;49.252;8.904;2023-07-31T02:50:43;99576.97;;;18.01;60.96
60489;BME280;46331;49.252;8.904;2023-07-31T02:51:23;99581.91;;;17.94;60.98
60489;BME280;46331;49.252;8.904;2023-07-31T02:52:04;99584.94;;;18.06;60.84
60489;BME280;46331;49.252;8.904;2023-07-31T02:52:45;99586.88;;;18.00;60.46
60489;BME280;46331;49.252;8.904;2023-07-31T02:53:25;99583.28;;;18.10;60.42
60489;BME280;46331;49.252;8.904;2023-07-31T02:54:06;99575.81;;;18.07;60.33
60489;BME280;46331;49.252;8.904;2023-07-31T02:54:46;99580.59;;;18.10;60.55
60489;BME280;46331;49.252;8.904;2023-07-31T02:55:27;99575.88;;;18.02;60.50
60489;BME280;46331;49.252;8.904;2023-07-31T02:56:07;99579.06;;;18.04;60.71
60489;BME280;46331;49.252;8.904;2023-07-31T02:56:48;99575.00;;;18.07;60.69
60489;BME280;46331;49.252;8.904;2023-07-31T02:57:29;99580.94;;;18.03;60.80
60489;BME280;46331;49.252;8.904;2023-07-31T02:58:09;99585.03;;;18.01;60.85
60489;BME280;46331;49.252;8.904;2023-07-31T02:58:50;99579.13;;;17.99;60.40
60489;BME280;46331;49.252;8.904;2023-07-31T02:59:30;99582.09;;;17.97;60.72
60489;BME280;46331;49.252;8.904;2023-07-31T03:00:11;99578.56;;;18.02;60.52
60489;BME280;46331;49.252;8.904;2023-07-31T03:00:52;99573.19;;;18.02;60.79
60489;BME280;46331;49.252;8.904;2023-07-31T03:01:32;99572.41;;;18.01;60.65
60489;BME280;46331;49.252;8.904;2023-07-31T03:02:13;99570.88;;;17.95;60.46
60489;BME280;46331;49.252;8.904;2023-07-31T03:02:54;99574.78;;;18.03;60.55
60489;BME280;46331;49.252;8.904;2023-07-31T03:03:34;99573.41;;;18.05;60.22
60489;BME280;46331;49.252;8.904;2023-07-31T03:04:15;99574.00;;;18.02;60.64
60489;BME280;46331;49.252;8.904;2023-07-31T03:04:56;99582.75;;;18.08;60.43
60489;BME280;46331;49.252;8.904;2023-07-31T03:05:36;99572.03;;;18.08;60.37
60489;BME280;46331;49.252;8.904;2023-07-31T03:06:17;99575.75;;;17.93;60.20
60489;BME280;46331;49.252;8.904;2023-07-31T03:06:57;99581.03;;;17.98;60.75
60489;BME280;46331;49.252;8.904;2023-07-31T03:07:38;99583.50;;;17.95;60.80
60489;BME280;46331;49.252;8.904;2023-07-31T03:08:18;99577.75;;;18.01;60.72
60489;BME280;46331;49.252;8.904;2023-07-31T03:08:59;99582.84;;;18.03;60.89
60489;BME280;46331;49.252;8.904;2023-07-31T03:09:39;99575.56;;;18.03;60.71
60489;BME280;46331;49.252;8.904;2023-07-31T03:10:20;99570.00;;;18.00;61.14
60489;BME280;46331;49.252;8.904;2023-07-31T03:11:00;99576.81;;;17.92;60.88
60489;BME280;46331;49.252;8.904;2023-07-31T03:11:41;99574.78;;;18.03;60.54
60489;BME280;46331;49.252;8.904;2023-07-31T03:12:22;99570.09;;;17.95;60.98
60489;BME280;46331;49.252;8.904;2023-07-31T03:13:02;99567.09;;;17.96;60.95
60489;BME280;46331;49.252;8.904;2023-07-31T03:13:43;99572.19;;;17.98;60.96
60489;BME280;46331;49.252;8.904;2023-07-31T03:14:23;99571.59;;;18.01;61.20
60489;BME280;46331;49.252;8.904;2023-07-31T03:15:07;99569.63;;;18.07;60.88
60489;BME280;46331;49.252;8.904;2023-07-31T03:15:47;99574.22;;;18.06;60.95
60489;BME280;46331;49.252;8.904;2023-07-31T03:16:28;99563.28;;;18.02;60.33
60489;BME280;46331;49.252;8.904;2023-07-31T03:17:08;99571.59;;;18.01;60.74
60489;BME280;46331;49.252;8.904;2023-07-31T03:17:49;99579.13;;;17.99;61.05
60489;BME280;46331;49.252;8.904;2023-07-31T03:18:29;99583.91;;;18.02;60.82
60489;BME280;46331;49.252;8.904;2023-07-31T03:19:10;99576.75;;;17.97;60.84
60489;BME280;46331;49.252;8.904;2023-07-31T03:19:50;99578.13;;;17.95;60.83
60489;BME280;46331;49.252;8.904;2023-07-31T03:20:31;99579.84;;;17.85;61.29
60489;BME280;46331;49.252;8.904;2023-07-31T03:21:12;99574.91;;;17.93;60.82
60489;BME280;46331;49.252;8.904;2023-07-31T03:21:53;99577.56;;;17.98;61.11
60489;BME280;46331;49.252;8.904;2023-07-31T03:22:33;99579.72;;;17.96;60.62
60489;BME280;46331;49.252;8.904;2023-07-31T03:23:15;99579.03;;;17.85;61.21
60489;BME280;46331;49.252;8.904;2023-07-31T03:23:55;99576.63;;;17.83;60.97
60489;BME280;46331;49.252;8.904;2023-07-31T03:24:36;99575.25;;;17.86;60.67
60489;BME280;46331;49.252;8.904;2023-07-31T03:25:16;99577.16;;;17.85;60.81
60489;BME280;46331;49.252;8.904;2023-07-31T03:25:58;99571.78;;;17.85;60.84
60489;BME280;46331;49.252;8.904;2023-07-31T03:26:42;99573.94;;;17.83;61.12
60489;BME280;46331;49.252;8.904;2023-07-31T03:27:22;99566.38;;;17.91;60.99
60489;BME280;46331;49.252;8.904;2023-07-31T03:28:03;99574.13;;;17.92;60.92
60489;BME280;46331;49.252;8.904;2023-07-31T03:28:44;99578.19;;;17.90;61.20
60489;BME280;46331;49.252;8.904;2023-07-31T03:29:25;99576.31;;;17.90;61.05
60489;BME280;46331;49.252;8.904;2023-07-31T03:30:07;99569.16;;;17.80;61.06
60489;BME280;46331;49.252;8.904;2023-07-31T03:30:47;99576.25;;;17.71;61.42
60489;BME280;46331;49.252;8.904;2023-07-31T03:31:29;99570.47;;;17.83;61.30
60489;BME280;46331;49.252;8.904;2023-07-31T03:32:10;99567.50;;;17.84;61.11
60489;BME280;46331;49.252;8.904;2023-07-31T03:32:50;99572.13;;;17.79;61.32
60489;BME280;46331;49.252;8.904;2023-07-31T03:33:31;99565.97;;;17.78;61.22
60489;BME280;46331;49.252;8.904;2023-07-31T03:34:11;99577.50;;;17.79;61.33
60489;BME280;46331;49.252;8.904;2023-07-31T03:34:52;99567.28;;;17.81;61.24
60489;BME280;46331;49.252;8.904;2023-07-31T03:35:33;99567.78;;;17.83;61.14
60489;BME280;46331;49.252;8.904;2023-07-31T03:36:14;99566.72;;;17.84;61.33
60489;BME280;46331;49.252;8.904;2023-07-31T03:36:54;99568.66;;;17.78;61.37
60489;BME280;46331;49.252;8.904;2023-07-31T03:37:35;99571.13;;;17.75;61.66
60489;BME280;46331;49.252;8.904;2023-07-31T03:38:15;99567.69;;;17.69;61.69
60489;BME280;46331;49.252;8.904;2023-07-31T03:38:56;99574.69;;;17.70;61.79
60489;BME280;46331;49.252;8.904;2023-07-31T03:39:36;99574.16;;;17.68;62.31
60489;BME280;46331;49.252;8.904;2023-07-31T03:40:17;99572.00;;;17.70;61.96
60489;BME280;46331;49.252;8.904;2023-07-31T03:40:57;99569.81;;;17.72;61.85
60489;BME280;46331;49.252;8.904;2023-07-31T03:41:39;99570.47;;;17.64;62.14
60489;BME280;46331;49.252;8.904;2023-07-31T03:42:19;99572.00;;;17.70;61.74
60489;BME280;46331;49.252;8.904;2023-07-31T03:43:00;99566.69;;;17.65;61.88